createdAt,value
2023-02-13T00:00:49.574Z,11.40
2023-02-13T00:01:49.711Z,11.00
2023-02-13T00:02:49.534Z,10.60
2023-02-13T00:03:49.548Z,10.90
2023-02-13T00:04:49.501Z,11.10
2023-02-13T00:05:49.490Z,10.90
2023-02-13T00:06:49.653Z,10.30
2023-02-13T00:07:49.466Z,11.20
2023-02-13T00:08:49.450Z,11.40
2023-02-13T00:09:49.614Z,10.50
2023-02-13T00:10:49.432Z,10.70
2023-02-13T00:11:49.571Z,10.00
2023-02-13T00:12:49.399Z,10.30
2023-02-13T00:13:49.577Z,10.20
2023-02-13T00:14:49.370Z,10.80
2023-02-13T00:15:49.376Z,10.60
2023-02-13T00:16:49.438Z,10.00
2023-02-13T00:17:49.339Z,9.40
2023-02-13T00:18:49.498Z,9.50
2023-02-13T00:19:49.311Z,10.20
2023-02-13T00:20:49.507Z,9.40
2023-02-13T00:21:49.279Z,9.30
2023-02-13T00:22:49.271Z,9.40
2023-02-13T00:23:49.257Z,9.20
2023-02-13T00:24:49.273Z,9.40
2023-02-13T00:25:49.237Z,9.30
2023-02-13T00:26:49.399Z,9.80
2023-02-13T00:27:49.208Z,9.80
2023-02-13T00:28:49.202Z,9.80
2023-02-13T00:29:49.174Z,9.10
2023-02-13T00:30:49.267Z,9.40
2023-02-13T00:31:49.262Z,9.40
2023-02-13T00:32:49.313Z,8.40
2023-02-13T00:33:49.111Z,8.10
2023-02-13T00:34:49.103Z,8.10
2023-02-13T00:35:49.092Z,8.40
2023-02-13T00:36:49.089Z,8.60
2023-02-13T00:37:49.239Z,8.00
2023-02-13T00:38:49.065Z,7.80
2023-02-13T00:39:49.039Z,7.80
2023-02-13T00:40:49.040Z,8.00
2023-02-13T00:41:49.016Z,7.60
2023-02-13T00:42:49.299Z,7.90
2023-02-13T00:43:49.167Z,8.50
2023-02-13T00:44:48.979Z,8.20
2023-02-13T00:45:48.968Z,7.30
2023-02-13T00:46:49.028Z,8.20
2023-02-13T00:47:48.937Z,7.40
2023-02-13T00:48:48.923Z,7.50
2023-02-13T00:49:48.917Z,7.20
2023-02-13T00:50:48.904Z,8.00
2023-02-13T00:51:48.873Z,7.10
2023-02-13T00:52:48.865Z,7.00
2023-02-13T00:53:48.855Z,7.10
2023-02-13T00:54:48.845Z,6.90
2023-02-13T00:55:48.844Z,7.00
2023-02-13T00:56:48.825Z,7.00
2023-02-13T00:57:48.801Z,7.30
2023-02-13T00:58:48.798Z,6.90
2023-02-13T00:59:50.558Z,6.70
2023-02-13T01:00:48.763Z,6.50
2023-02-13T01:01:48.994Z,5.90
2023-02-13T01:02:48.743Z,6.10
2023-02-13T01:03:48.753Z,6.20
2023-02-13T01:04:48.717Z,6.10
2023-02-13T01:05:48.711Z,6.30
2023-02-13T01:06:48.708Z,6.00
2023-02-13T01:07:48.846Z,5.90
2023-02-13T01:08:48.675Z,5.80
2023-02-13T01:09:48.823Z,6.40
2023-02-13T01:10:48.641Z,6.60
2023-02-13T01:11:48.614Z,6.70
2023-02-13T01:12:48.614Z,6.40
2023-02-13T01:13:48.772Z,6.60
2023-02-13T01:14:48.587Z,6.60
2023-02-13T01:15:48.624Z,6.50
2023-02-13T01:16:48.564Z,6.10
2023-02-13T01:17:48.550Z,6.40
2023-02-13T01:18:48.557Z,6.50
2023-02-13T01:19:48.693Z,6.00
2023-02-13T01:20:48.523Z,6.40
2023-02-13T01:21:48.492Z,7.10
2023-02-13T01:22:48.496Z,5.80
2023-02-13T01:23:48.470Z,5.60
2023-02-13T01:24:48.454Z,5.80
2023-02-13T01:25:48.456Z,5.90
2023-02-13T01:26:48.441Z,5.10
2023-02-13T01:27:48.411Z,5.50
2023-02-13T01:28:48.404Z,5.60
2023-02-13T01:29:48.402Z,5.10
2023-02-13T01:30:48.458Z,5.10
2023-02-13T01:31:48.683Z,5.00
2023-02-13T01:32:48.449Z,4.90
2023-02-13T01:33:48.346Z,5.10
2023-02-13T01:34:48.324Z,5.20
2023-02-13T01:35:48.303Z,4.40
2023-02-13T01:36:48.621Z,5.30
2023-02-13T01:37:48.284Z,5.10
2023-02-13T01:38:48.444Z,4.70
2023-02-13T01:39:48.252Z,4.70
2023-02-13T01:40:48.239Z,4.30
2023-02-13T01:41:48.243Z,4.60
2023-02-13T01:42:48.217Z,4.30
2023-02-13T01:43:48.394Z,4.40
2023-02-13T01:44:48.199Z,4.30
2023-02-13T01:45:48.176Z,4.30
2023-02-13T01:46:48.195Z,4.60
2023-02-13T01:47:48.151Z,4.60
2023-02-13T01:48:48.307Z,3.70
2023-02-13T01:49:48.117Z,4.10
2023-02-13T01:50:48.114Z,4.20
2023-02-13T01:51:48.093Z,4.00
2023-02-13T01:52:48.085Z,4.10
2023-02-13T01:53:48.079Z,3.90
2023-02-13T01:54:48.054Z,3.90
2023-02-13T01:55:48.044Z,3.90
2023-02-13T01:56:48.033Z,3.80
2023-02-13T01:57:48.032Z,3.70
2023-02-13T01:58:48.171Z,3.80
2023-02-13T01:59:47.981Z,3.40
2023-02-13T02:00:47.983Z,3.70
2023-02-13T02:01:48.075Z,3.20
2023-02-13T02:02:47.990Z,3.60
2023-02-13T02:03:48.111Z,3.50
2023-02-13T02:04:47.929Z,3.90
2023-02-13T02:05:47.910Z,3.70
2023-02-13T02:06:47.900Z,3.50
2023-02-13T02:07:47.880Z,3.50
2023-02-13T02:08:48.040Z,3.50
2023-02-13T02:09:47.872Z,3.20
2023-02-13T02:10:47.854Z,3.30
2023-02-13T02:11:48.000Z,3.80
2023-02-13T02:12:47.823Z,3.40
2023-02-13T02:13:48.001Z,3.10
2023-02-13T02:14:47.802Z,3.00
2023-02-13T02:15:47.854Z,3.20
2023-02-13T02:16:47.771Z,3.50
2023-02-13T02:17:47.750Z,3.50
2023-02-13T02:18:47.921Z,3.30
2023-02-13T02:19:47.731Z,3.60
2023-02-13T02:20:47.726Z,3.40
2023-02-13T02:21:47.701Z,3.40
2023-02-13T02:22:47.701Z,2.90
2023-02-13T02:23:47.852Z,3.10
2023-02-13T02:24:47.671Z,3.40
2023-02-13T02:25:47.662Z,3.40
2023-02-13T02:26:47.666Z,3.20
2023-02-13T02:27:47.627Z,3.10
2023-02-13T02:28:47.802Z,3.20
2023-02-13T02:29:47.602Z,3.30
2023-02-13T02:30:47.820Z,3.40
2023-02-13T02:31:47.628Z,3.20
2023-02-13T02:32:47.563Z,3.50
2023-02-13T02:33:47.540Z,3.30
2023-02-13T02:34:47.553Z,3.30
2023-02-13T02:35:47.702Z,3.40
2023-02-13T02:36:47.519Z,3.00
2023-02-13T02:37:47.491Z,3.20
2023-02-13T02:38:47.494Z,2.90
2023-02-13T02:39:47.482Z,3.50
2023-02-13T02:40:47.652Z,3.10
2023-02-13T02:41:47.453Z,3.40
2023-02-13T02:42:47.442Z,3.10
2023-02-13T02:43:47.421Z,2.80
2023-02-13T02:44:47.412Z,3.20
2023-02-13T02:45:47.563Z,3.10
2023-02-13T02:46:47.391Z,3.30
2023-02-13T02:47:47.657Z,3.10
2023-02-13T02:48:47.366Z,3.40
2023-02-13T02:49:47.336Z,3.00
2023-02-13T02:50:47.325Z,3.00
2023-02-13T02:51:47.307Z,3.40
2023-02-13T02:52:47.584Z,3.50
2023-02-13T02:53:47.298Z,3.50
2023-02-13T02:54:47.390Z,3.20
2023-02-13T02:55:47.262Z,3.10
2023-02-13T02:56:47.244Z,3.20
2023-02-13T02:57:47.592Z,3.30
2023-02-13T02:58:47.239Z,3.40
2023-02-13T02:59:47.204Z,3.30
2023-02-13T03:00:47.224Z,3.20
2023-02-13T03:01:47.179Z,3.20
2023-02-13T03:02:47.165Z,3.00
2023-02-13T03:03:47.321Z,3.10
2023-02-13T03:04:47.308Z,3.10
2023-02-13T03:05:47.139Z,3.20
2023-02-13T03:06:47.117Z,2.90
2023-02-13T03:07:47.098Z,3.00
2023-02-13T03:08:47.258Z,3.30
2023-02-13T03:09:47.071Z,3.00
2023-02-13T03:10:47.235Z,3.50
2023-02-13T03:11:47.045Z,2.80
2023-02-13T03:12:47.036Z,2.90
2023-02-13T03:13:47.018Z,3.00
2023-02-13T03:14:47.187Z,2.90
2023-02-13T03:15:46.988Z,3.60
2023-02-13T03:16:46.985Z,3.20
2023-02-13T03:17:46.967Z,3.20
2023-02-13T03:18:46.957Z,3.10
2023-02-13T03:19:47.117Z,2.70
2023-02-13T03:20:47.097Z,3.30
2023-02-13T03:21:46.905Z,2.90
2023-02-13T03:22:46.906Z,3.00
2023-02-13T03:23:46.885Z,3.20
2023-02-13T03:24:46.878Z,3.00
2023-02-13T03:25:47.043Z,2.90
2023-02-13T03:26:46.864Z,2.50
2023-02-13T03:27:46.843Z,3.50
2023-02-13T03:28:46.824Z,3.00
2023-02-13T03:29:46.822Z,2.80
2023-02-13T03:30:47.033Z,3.20
2023-02-13T03:31:46.834Z,2.80
2023-02-13T03:32:46.786Z,3.10
2023-02-13T03:33:46.937Z,3.00
2023-02-13T03:34:46.751Z,3.20
2023-02-13T03:35:46.731Z,3.10
2023-02-13T03:36:46.893Z,3.10
2023-02-13T03:37:46.703Z,3.10
2023-02-13T03:38:46.877Z,2.90
2023-02-13T03:39:46.681Z,2.90
2023-02-13T03:40:46.662Z,2.60
2023-02-13T03:41:46.671Z,2.90
2023-02-13T03:42:46.632Z,2.50
2023-02-13T03:43:46.812Z,2.60
2023-02-13T03:44:46.611Z,2.00
2023-02-13T03:45:46.621Z,2.60
2023-02-13T03:46:46.589Z,2.20
2023-02-13T03:47:46.585Z,2.30
2023-02-13T03:48:46.564Z,2.30
2023-02-13T03:49:46.730Z,2.40
2023-02-13T03:50:46.530Z,2.40
2023-02-13T03:51:46.524Z,2.30
2023-02-13T03:52:46.824Z,2.50
2023-02-13T03:53:46.499Z,2.50
2023-02-13T03:54:46.489Z,2.50
2023-02-13T03:55:46.637Z,2.30
2023-02-13T03:56:46.448Z,2.60
2023-02-13T03:57:46.619Z,2.90
2023-02-13T03:58:46.445Z,2.50
2023-02-13T03:59:46.417Z,2.30
2023-02-13T04:00:46.460Z,2.20
2023-02-13T04:01:46.387Z,2.70
2023-02-13T04:02:46.547Z,2.40
2023-02-13T04:03:46.367Z,2.60
2023-02-13T04:04:46.348Z,2.80
2023-02-13T04:05:46.339Z,2.40
2023-02-13T04:06:46.341Z,2.70
2023-02-13T04:07:46.496Z,2.60
2023-02-13T04:08:46.313Z,2.50
2023-02-13T04:09:46.290Z,2.70
2023-02-13T04:10:46.267Z,2.40
2023-02-13T04:11:46.268Z,2.30
2023-02-13T04:12:46.420Z,2.80
2023-02-13T04:13:46.411Z,2.30
2023-02-13T04:14:46.216Z,2.80
2023-02-13T04:15:46.215Z,2.60
2023-02-13T04:16:46.203Z,2.40
2023-02-13T04:17:46.190Z,2.40
2023-02-13T04:18:46.490Z,2.60
2023-02-13T04:19:46.163Z,2.90
2023-02-13T04:20:46.142Z,2.60
2023-02-13T04:21:46.122Z,2.70
2023-02-13T04:22:46.112Z,2.70
2023-02-13T04:23:46.285Z,3.00
2023-02-13T04:24:46.092Z,2.90
2023-02-13T04:25:46.077Z,2.70
2023-02-13T04:26:46.061Z,3.00
2023-02-13T04:27:46.055Z,2.70
2023-02-13T04:28:46.040Z,2.90
2023-02-13T04:29:46.043Z,3.00
2023-02-13T04:30:46.149Z,3.00
2023-02-13T04:31:46.077Z,2.70
2023-02-13T04:32:45.986Z,2.70
2023-02-13T04:33:45.972Z,2.70
2023-02-13T04:34:45.962Z,2.80
2023-02-13T04:35:46.144Z,2.70
2023-02-13T04:36:45.931Z,2.90
2023-02-13T04:37:46.113Z,3.00
2023-02-13T04:38:45.917Z,2.90
2023-02-13T04:39:45.902Z,3.10
2023-02-13T04:40:45.961Z,2.70
2023-02-13T04:41:45.883Z,3.00
2023-02-13T04:42:45.849Z,2.90
2023-02-13T04:43:46.067Z,2.90
2023-02-13T04:44:45.823Z,3.20
2023-02-13T04:45:45.834Z,3.30
2023-02-13T04:46:45.800Z,3.10
2023-02-13T04:47:45.802Z,2.90
2023-02-13T04:48:45.949Z,3.00
2023-02-13T04:49:45.765Z,2.60
2023-02-13T04:50:45.763Z,2.50
2023-02-13T04:51:45.739Z,3.00
2023-02-13T04:52:45.720Z,3.10
2023-02-13T04:53:45.717Z,2.90
2023-02-13T04:54:45.699Z,3.00
2023-02-13T04:55:45.706Z,2.80
2023-02-13T04:56:45.679Z,3.00
2023-02-13T04:57:45.660Z,3.00
2023-02-13T04:58:45.818Z,3.20
2023-02-13T04:59:45.629Z,2.80
2023-02-13T05:00:45.619Z,3.10
2023-02-13T05:01:45.844Z,3.30
2023-02-13T05:02:45.596Z,2.90
2023-02-13T05:03:45.757Z,3.10
2023-02-13T05:04:45.643Z,3.20
2023-02-13T05:05:45.564Z,3.40
2023-02-13T05:06:45.544Z,3.30
2023-02-13T05:07:45.538Z,3.30
2023-02-13T05:08:45.697Z,3.20
2023-02-13T05:09:45.506Z,3.20
2023-02-13T05:10:45.510Z,3.50
2023-02-13T05:11:45.655Z,3.70
2023-02-13T05:12:45.470Z,3.30
2023-02-13T05:13:45.456Z,4.50
2023-02-13T05:14:45.434Z,4.20
2023-02-13T05:15:45.463Z,3.90
2023-02-13T05:16:45.585Z,4.30
2023-02-13T05:17:45.407Z,4.70
2023-02-13T05:18:45.390Z,4.80
2023-02-13T05:19:45.373Z,4.30
2023-02-13T05:20:45.356Z,4.40
2023-02-13T05:21:45.554Z,4.70
2023-02-13T05:22:45.502Z,4.70
2023-02-13T05:23:45.313Z,4.20
2023-02-13T05:24:45.317Z,4.60
2023-02-13T05:25:45.311Z,4.80
2023-02-13T05:26:45.283Z,4.30
2023-02-13T05:27:45.280Z,4.50
2023-02-13T05:28:45.252Z,4.40
2023-02-13T05:29:45.242Z,4.70
2023-02-13T05:30:45.252Z,4.70
2023-02-13T05:31:45.366Z,4.40
2023-02-13T05:32:45.200Z,4.70
2023-02-13T05:33:45.217Z,4.60
2023-02-13T05:34:45.172Z,4.50
2023-02-13T05:35:45.185Z,4.40
2023-02-13T05:36:45.143Z,4.40
2023-02-13T05:37:45.141Z,4.40
2023-02-13T05:38:45.121Z,4.20
2023-02-13T05:39:45.425Z,4.30
2023-02-13T05:40:45.105Z,3.80
2023-02-13T05:41:45.094Z,4.40
2023-02-13T05:42:45.063Z,4.80
2023-02-13T05:43:45.064Z,4.30
2023-02-13T05:44:45.052Z,4.40
2023-02-13T05:45:45.047Z,4.50
2023-02-13T05:46:45.134Z,4.20
2023-02-13T05:47:45.012Z,4.30
2023-02-13T05:48:45.006Z,4.30
2023-02-13T05:49:45.006Z,4.50
2023-02-13T05:50:44.982Z,4.10
2023-02-13T05:51:44.970Z,4.60
2023-02-13T05:52:45.122Z,3.60
2023-02-13T05:53:44.940Z,4.30
2023-02-13T05:54:44.942Z,4.20
2023-02-13T05:55:44.905Z,4.30
2023-02-13T05:56:44.899Z,3.70
2023-02-13T05:57:44.902Z,4.30
2023-02-13T05:58:44.868Z,4.20
2023-02-13T05:59:44.851Z,4.50
2023-02-13T06:00:44.842Z,4.20
2023-02-13T06:01:45.016Z,4.40
2023-02-13T06:02:44.842Z,4.40
2023-02-13T06:03:44.881Z,4.40
2023-02-13T06:04:44.784Z,3.80
2023-02-13T06:05:44.784Z,3.70
2023-02-13T06:06:44.772Z,4.10
2023-02-13T06:07:44.943Z,4.00
2023-02-13T06:08:44.744Z,4.40
2023-02-13T06:09:44.723Z,4.50
2023-02-13T06:10:45.249Z,4.20
2023-02-13T06:11:44.693Z,4.20
2023-02-13T06:12:44.683Z,4.40
2023-02-13T06:13:44.661Z,4.50
2023-02-13T06:14:44.661Z,4.40
2023-02-13T06:15:44.647Z,4.10
2023-02-13T06:16:44.635Z,4.10
2023-02-13T06:17:44.610Z,4.40
2023-02-13T06:18:44.781Z,4.60
2023-02-13T06:19:44.760Z,4.20
2023-02-13T06:20:44.604Z,3.90
2023-02-13T06:21:44.558Z,4.20
2023-02-13T06:22:44.551Z,4.50
2023-02-13T06:23:44.535Z,4.20
2023-02-13T06:24:44.749Z,4.10
2023-02-13T06:25:44.498Z,3.90
2023-02-13T06:26:44.511Z,4.10
2023-02-13T06:27:44.480Z,4.50
2023-02-13T06:28:44.542Z,3.80
2023-02-13T06:29:44.455Z,4.10
2023-02-13T06:30:44.502Z,3.90
2023-02-13T06:31:44.474Z,4.30
2023-02-13T06:32:44.419Z,3.80
2023-02-13T06:33:44.407Z,4.40
2023-02-13T06:34:44.402Z,4.30
2023-02-13T06:35:44.367Z,4.50
2023-02-13T06:36:44.387Z,4.20
2023-02-13T06:37:44.349Z,4.10
2023-02-13T06:38:44.355Z,4.40
2023-02-13T06:39:44.326Z,4.10
2023-02-13T06:40:44.316Z,4.20
2023-02-13T06:41:44.326Z,4.50
2023-02-13T06:42:44.286Z,4.50
2023-02-13T06:43:44.277Z,4.70
2023-02-13T06:44:44.265Z,4.30
2023-02-13T06:45:44.252Z,4.30
2023-02-13T06:46:44.302Z,4.00
2023-02-13T06:47:44.226Z,4.70
2023-02-13T06:48:44.406Z,4.30
2023-02-13T06:49:44.195Z,4.30
2023-02-13T06:50:44.188Z,4.80
2023-02-13T06:51:44.172Z,4.90
2023-02-13T06:52:44.165Z,4.50
2023-02-13T06:53:44.145Z,4.40
2023-02-13T06:54:47.958Z,4.90
2023-02-13T06:55:44.119Z,4.90
2023-02-13T06:56:44.115Z,4.80
2023-02-13T06:57:44.088Z,4.50
2023-02-13T06:58:44.077Z,4.80
2023-02-13T06:59:44.241Z,4.40
2023-02-13T07:00:44.075Z,4.70
2023-02-13T07:01:44.053Z,4.40
2023-02-13T07:02:44.051Z,5.10
2023-02-13T07:03:44.017Z,4.00
2023-02-13T07:04:44.004Z,4.80
2023-02-13T07:05:43.992Z,4.40
2023-02-13T07:06:43.993Z,4.40
2023-02-13T07:07:43.962Z,4.30
2023-02-13T07:08:43.950Z,4.80
2023-02-13T07:09:43.930Z,4.80
2023-02-13T07:10:43.929Z,4.60
2023-02-13T07:11:43.938Z,4.60
2023-02-13T07:12:45.775Z,4.60
2023-02-13T07:13:44.871Z,4.50
2023-02-13T07:14:43.873Z,4.10
2023-02-13T07:15:43.854Z,5.00
2023-02-13T07:16:44.019Z,4.80
2023-02-13T07:17:43.876Z,4.30
2023-02-13T07:18:43.824Z,4.50
2023-02-13T07:19:43.797Z,4.60
2023-02-13T07:20:43.784Z,4.90
2023-02-13T07:21:43.958Z,4.50
2023-02-13T07:22:43.767Z,4.60
2023-02-13T07:23:43.760Z,4.70
2023-02-13T07:24:43.914Z,4.80
2023-02-13T07:25:43.728Z,4.30
2023-02-13T07:26:43.708Z,4.30
2023-02-13T07:27:43.715Z,4.60
2023-02-13T07:28:43.758Z,4.20
2023-02-13T07:29:43.874Z,4.50
2023-02-13T07:30:43.675Z,4.90
2023-02-13T07:31:43.663Z,4.70
2023-02-13T07:32:43.637Z,4.40
2023-02-13T07:33:43.619Z,4.00
2023-02-13T07:34:59.601Z,4.50
2023-02-13T07:35:44.767Z,4.70
2023-02-13T07:36:43.767Z,4.60
2023-02-13T07:37:43.570Z,5.00
2023-02-13T07:38:43.553Z,4.60
2023-02-13T07:39:43.555Z,4.20
2023-02-13T07:40:43.674Z,5.00
2023-02-13T07:41:43.517Z,4.50
2023-02-13T07:42:43.537Z,4.70
2023-02-13T07:43:43.497Z,4.80
2023-02-13T07:44:43.479Z,4.80
2023-02-13T07:45:43.698Z,4.40
2023-02-13T07:46:43.490Z,4.70
2023-02-13T07:47:43.439Z,4.50
2023-02-13T07:48:43.427Z,4.90
2023-02-13T07:49:43.431Z,4.70
2023-02-13T07:50:43.398Z,5.00
2023-02-13T07:51:43.569Z,4.70
2023-02-13T07:52:43.433Z,4.40
2023-02-13T07:53:43.380Z,4.90
2023-02-13T07:54:43.347Z,4.90
2023-02-13T07:55:43.351Z,5.10
2023-02-13T07:56:43.497Z,5.50
2023-02-13T07:57:43.477Z,4.90
2023-02-13T07:58:43.302Z,4.70
2023-02-13T07:59:43.291Z,4.50
2023-02-13T08:00:43.282Z,5.20
2023-02-13T08:01:43.484Z,4.60
2023-02-13T08:02:43.247Z,4.70
2023-02-13T08:03:43.319Z,4.80
2023-02-13T08:04:43.499Z,4.90
2023-02-13T08:05:43.239Z,5.30
2023-02-13T08:06:43.366Z,4.90
2023-02-13T08:07:43.187Z,4.40
2023-02-13T08:08:43.168Z,5.50
2023-02-13T08:09:43.156Z,5.40
2023-02-13T08:10:43.147Z,5.00
2023-02-13T08:11:43.138Z,5.10
2023-02-13T08:12:43.163Z,5.10
2023-02-13T08:13:43.104Z,5.30
2023-02-13T08:14:43.085Z,5.20
2023-02-13T08:15:43.075Z,4.30
2023-02-13T08:16:43.112Z,5.10
2023-02-13T08:17:43.219Z,5.10
2023-02-13T08:18:43.044Z,5.00
2023-02-13T08:19:43.029Z,5.10
2023-02-13T08:20:43.009Z,4.60
2023-02-13T08:21:43.000Z,5.10
2023-02-13T08:22:43.156Z,4.90
2023-02-13T08:23:43.019Z,4.60
2023-02-13T08:24:42.960Z,4.70
2023-02-13T08:25:42.947Z,5.20
2023-02-13T08:26:42.934Z,5.10
2023-02-13T08:27:43.088Z,5.00
2023-02-13T08:28:42.938Z,5.20
2023-02-13T08:29:42.894Z,5.20
2023-02-13T08:30:42.908Z,4.70
2023-02-13T08:31:42.900Z,4.80
2023-02-13T08:32:53.934Z,5.10
2023-02-13T08:33:43.843Z,5.60
2023-02-13T08:34:42.823Z,4.90
2023-02-13T08:35:42.822Z,4.50
2023-02-13T08:36:42.821Z,4.90
2023-02-13T08:37:42.784Z,4.70
2023-02-13T08:38:42.796Z,4.70
2023-02-13T08:39:42.932Z,4.50
2023-02-13T08:40:42.742Z,4.80
2023-02-13T08:41:42.731Z,4.50
2023-02-13T08:42:42.723Z,4.90
2023-02-13T08:43:42.712Z,4.50
2023-02-13T08:44:42.864Z,4.80
2023-02-13T08:45:42.718Z,4.30
2023-02-13T08:46:42.670Z,4.10
2023-02-13T08:47:42.672Z,4.40
2023-02-13T08:48:42.640Z,4.40
2023-02-13T08:49:42.631Z,4.80
2023-02-13T08:50:42.611Z,4.50
2023-02-13T08:51:42.611Z,4.30
2023-02-13T08:52:42.798Z,4.60
2023-02-13T08:53:42.575Z,4.60
2023-02-13T08:54:42.562Z,4.50
2023-02-13T08:55:42.568Z,4.50
2023-02-13T08:56:42.548Z,4.60
2023-02-13T08:57:42.759Z,4.50
2023-02-13T08:58:42.524Z,4.40
2023-02-13T08:59:42.498Z,4.20
2023-02-13T09:00:42.489Z,5.00
2023-02-13T09:01:42.507Z,4.50
2023-02-13T09:02:42.501Z,4.80
2023-02-13T09:03:42.617Z,4.30
2023-02-13T09:04:42.446Z,4.60
2023-02-13T09:05:42.417Z,4.40
2023-02-13T09:06:42.409Z,4.40
2023-02-13T09:07:42.388Z,3.90
2023-02-13T09:08:42.558Z,4.20
2023-02-13T09:09:42.381Z,4.10
2023-02-13T09:10:42.357Z,4.00
2023-02-13T09:11:42.345Z,4.70
2023-02-13T09:12:42.505Z,3.80
2023-02-13T09:13:42.325Z,3.90
2023-02-13T09:14:42.318Z,4.40
2023-02-13T09:15:42.289Z,3.60
2023-02-13T09:16:42.526Z,4.10
2023-02-13T09:17:42.260Z,4.40
2023-02-13T09:18:42.276Z,3.80
2023-02-13T09:19:42.246Z,4.20
2023-02-13T09:20:42.228Z,3.90
2023-02-13T09:21:42.217Z,3.80
2023-02-13T09:22:42.374Z,3.80
2023-02-13T09:23:42.196Z,3.80
2023-02-13T09:24:42.183Z,3.70
2023-02-13T09:25:42.166Z,3.90
2023-02-13T09:26:42.166Z,4.20
2023-02-13T09:27:42.148Z,3.80
2023-02-13T09:28:42.172Z,3.60
2023-02-13T09:29:42.147Z,4.00
2023-02-13T09:30:42.163Z,4.10
2023-02-13T09:31:42.238Z,4.40
2023-02-13T09:32:42.082Z,3.70
2023-02-13T09:33:42.057Z,3.90
2023-02-13T09:34:42.218Z,4.20
2023-02-13T09:35:42.048Z,3.60
2023-02-13T09:36:42.049Z,3.90
2023-02-13T09:37:42.012Z,4.10
2023-02-13T09:38:41.995Z,3.80
2023-02-13T09:39:41.979Z,4.10
2023-02-13T09:40:41.985Z,3.80
2023-02-13T09:41:41.970Z,3.90
2023-02-13T09:42:41.943Z,3.80
2023-02-13T09:43:42.107Z,3.90
2023-02-13T09:44:41.916Z,4.10
2023-02-13T09:45:41.896Z,3.60
2023-02-13T09:46:41.942Z,3.60
2023-02-13T09:47:41.876Z,3.70
2023-02-13T09:48:42.055Z,3.80
2023-02-13T09:49:41.845Z,3.40
2023-02-13T09:50:41.836Z,3.80
2023-02-13T09:51:41.814Z,3.30
2023-02-13T09:52:41.816Z,3.50
2023-02-13T09:53:41.974Z,3.80
2023-02-13T09:54:41.792Z,3.50
2023-02-13T09:55:41.785Z,3.70
2023-02-13T09:56:41.779Z,3.90
2023-02-13T09:57:41.731Z,4.20
2023-02-13T09:58:41.752Z,3.60
2023-02-13T09:59:41.711Z,3.70
2023-02-13T10:00:41.715Z,3.90
2023-02-13T10:01:41.897Z,3.90
2023-02-13T10:02:41.689Z,3.50
2023-02-13T10:03:41.661Z,3.80
2023-02-13T10:04:41.701Z,3.70
2023-02-13T10:05:41.632Z,3.60
2023-02-13T10:06:41.941Z,3.70
2023-02-13T10:07:41.609Z,3.50
2023-02-13T10:08:41.610Z,3.80
2023-02-13T10:09:41.588Z,3.40
2023-02-13T10:10:41.758Z,3.60
2023-02-13T10:11:41.590Z,3.60
2023-02-13T10:12:41.557Z,3.50
2023-02-13T10:13:41.709Z,3.60
2023-02-13T10:14:41.527Z,3.50
2023-02-13T10:15:41.748Z,3.60
2023-02-13T10:16:41.507Z,3.20
2023-02-13T10:17:41.480Z,3.40
2023-02-13T10:18:41.468Z,3.30
2023-02-13T10:19:41.474Z,3.70
2023-02-13T10:20:41.489Z,3.70
2023-02-13T10:21:41.438Z,3.70
2023-02-13T10:22:41.427Z,3.50
2023-02-13T10:23:41.424Z,3.90
2023-02-13T10:24:41.402Z,3.70
2023-02-13T10:25:41.388Z,3.40
2023-02-13T10:26:41.537Z,3.50
2023-02-13T10:27:41.355Z,3.30
2023-02-13T10:28:41.470Z,3.80
2023-02-13T10:29:41.329Z,3.50
2023-02-13T10:30:41.505Z,3.50
2023-02-13T10:31:41.432Z,3.30
2023-02-13T10:32:41.299Z,3.60
2023-02-13T10:33:41.463Z,3.50
2023-02-13T10:34:41.259Z,3.50
2023-02-13T10:35:41.434Z,3.70
2023-02-13T10:36:41.226Z,3.50
2023-02-13T10:37:41.214Z,3.30
2023-02-13T10:38:41.209Z,3.30
2023-02-13T10:39:41.200Z,3.00
2023-02-13T10:40:41.178Z,3.00
2023-02-13T10:41:41.170Z,2.90
2023-02-13T10:42:41.151Z,2.90
2023-02-13T10:43:41.138Z,3.40
2023-02-13T10:44:41.305Z,3.30
2023-02-13T10:45:41.107Z,3.00
2023-02-13T10:46:41.154Z,3.60
2023-02-13T10:47:41.079Z,3.20
2023-02-13T10:48:41.067Z,3.00
2023-02-13T10:49:41.227Z,3.80
2023-02-13T10:50:41.037Z,3.50
2023-02-13T10:51:41.211Z,2.80
2023-02-13T10:52:41.015Z,3.30
2023-02-13T10:53:41.018Z,3.40
2023-02-13T10:54:41.004Z,3.10
2023-02-13T10:55:40.975Z,2.80
2023-02-13T10:56:41.044Z,3.20
2023-02-13T10:57:41.048Z,3.10
2023-02-13T10:58:40.933Z,3.10
2023-02-13T10:59:40.960Z,2.80
2023-02-13T11:00:42.869Z,3.00
2023-02-13T11:01:40.960Z,3.60
2023-02-13T11:02:40.875Z,2.80
2023-02-13T11:03:40.864Z,3.30
2023-02-13T11:04:40.884Z,3.50
2023-02-13T11:05:41.207Z,3.60
2023-02-13T11:06:40.910Z,3.20
2023-02-13T11:07:41.191Z,3.30
2023-02-13T11:08:40.878Z,3.20
2023-02-13T11:09:40.832Z,3.20
2023-02-13T11:10:40.767Z,3.40
2023-02-13T11:11:40.770Z,3.10
2023-02-13T11:12:40.926Z,2.90
2023-02-13T11:13:40.725Z,2.90
2023-02-13T11:14:40.715Z,3.10
2023-02-13T11:15:40.731Z,3.30
2023-02-13T11:16:40.688Z,2.90
2023-02-13T11:17:40.885Z,3.20
2023-02-13T11:18:40.665Z,3.00
2023-02-13T11:19:40.653Z,3.00
2023-02-13T11:20:40.624Z,3.20
2023-02-13T11:21:40.629Z,2.80
2023-02-13T11:22:40.613Z,2.90
2023-02-13T11:23:40.770Z,3.20
2023-02-13T11:24:40.581Z,3.30
2023-02-13T11:25:40.560Z,3.20
2023-02-13T11:26:40.558Z,3.10
2023-02-13T11:27:40.714Z,2.80
2023-02-13T11:28:40.603Z,2.70
2023-02-13T11:29:40.509Z,3.20
2023-02-13T11:30:40.519Z,3.40
2023-02-13T11:31:40.539Z,3.30
2023-02-13T11:32:40.653Z,3.20
2023-02-13T11:33:40.463Z,3.20
2023-02-13T11:34:40.452Z,3.50
2023-02-13T11:35:40.486Z,3.40
2023-02-13T11:36:40.413Z,3.30
2023-02-13T11:37:40.583Z,3.20
2023-02-13T11:38:40.392Z,3.00
2023-02-13T11:39:40.691Z,3.20
2023-02-13T11:40:40.373Z,3.10
2023-02-13T11:41:40.361Z,3.20
2023-02-13T11:42:40.331Z,3.30
2023-02-13T11:43:40.332Z,3.00
2023-02-13T11:44:40.493Z,3.50
2023-02-13T11:45:40.511Z,3.40
2023-02-13T11:46:40.348Z,3.50
2023-02-13T11:47:40.280Z,3.20
2023-02-13T11:48:40.261Z,3.50
2023-02-13T11:49:40.421Z,3.00
2023-02-13T11:50:40.243Z,3.30
2023-02-13T11:51:40.222Z,3.10
2023-02-13T11:52:40.255Z,3.30
2023-02-13T11:53:40.197Z,3.40
2023-02-13T11:54:40.361Z,3.10
2023-02-13T11:55:40.364Z,3.40
2023-02-13T11:56:45.721Z,3.20
2023-02-13T11:57:41.163Z,3.20
2023-02-13T11:58:40.153Z,2.90
2023-02-13T11:59:40.118Z,2.80
2023-02-13T12:00:40.397Z,3.00
2023-02-13T12:01:40.092Z,2.90
2023-02-13T12:02:40.118Z,3.50
2023-02-13T12:03:40.153Z,3.00
2023-02-13T12:04:40.083Z,3.20
2023-02-13T12:05:40.053Z,3.40
2023-02-13T12:06:40.121Z,2.90
2023-02-13T12:07:40.005Z,3.10
2023-02-13T12:08:40.005Z,2.90
2023-02-13T12:09:39.988Z,3.30
2023-02-13T12:10:39.975Z,2.90
2023-02-13T12:11:39.965Z,3.10
2023-02-13T12:12:40.125Z,3.30
2023-02-13T12:13:39.934Z,3.20
2023-02-13T12:14:39.928Z,3.20
2023-02-13T12:15:39.916Z,3.50
2023-02-13T12:16:40.106Z,3.60
2023-02-13T12:17:39.896Z,3.20
2023-02-13T12:18:40.055Z,3.10
2023-02-13T12:19:39.859Z,3.00
2023-02-13T12:20:39.853Z,3.30
2023-02-13T12:21:39.826Z,3.50
2023-02-13T12:22:39.831Z,3.40
2023-02-13T12:23:39.985Z,3.10
2023-02-13T12:24:39.797Z,3.10
2023-02-13T12:25:39.791Z,3.40
2023-02-13T12:26:39.777Z,3.10
2023-02-13T12:27:39.778Z,3.40
2023-02-13T12:28:40.076Z,3.30
2023-02-13T12:29:39.768Z,3.60
2023-02-13T12:30:39.758Z,3.20
2023-02-13T12:31:39.829Z,4.00
2023-02-13T12:32:39.686Z,3.80
2023-02-13T12:33:39.689Z,3.00
2023-02-13T12:34:39.662Z,3.30
2023-02-13T12:35:39.649Z,3.70
2023-02-13T12:36:39.842Z,3.70
2023-02-13T12:37:39.631Z,3.60
2023-02-13T12:38:39.610Z,3.30
2023-02-13T12:39:39.592Z,2.80
2023-02-13T12:40:39.609Z,3.30
2023-02-13T12:41:39.762Z,3.30
2023-02-13T12:42:39.563Z,3.20
2023-02-13T12:43:39.541Z,3.50
2023-02-13T12:44:39.530Z,3.60
2023-02-13T12:45:39.777Z,3.60
2023-02-13T12:46:39.953Z,3.30
2023-02-13T12:47:39.505Z,3.40
2023-02-13T12:48:39.494Z,3.20
2023-02-13T12:49:39.471Z,3.30
2023-02-13T12:50:39.452Z,3.30
2023-02-13T12:51:39.608Z,3.70
2023-02-13T12:52:39.444Z,3.30
2023-02-13T12:53:39.505Z,3.40
2023-02-13T12:54:39.407Z,3.20
2023-02-13T12:55:39.381Z,3.10
2023-02-13T12:56:39.375Z,3.30
2023-02-13T12:57:39.423Z,3.20
2023-02-13T12:58:39.365Z,3.20
2023-02-13T12:59:39.340Z,3.50
2023-02-13T13:00:39.332Z,3.00
2023-02-13T13:01:39.474Z,3.10
2023-02-13T13:02:39.341Z,3.00
2023-02-13T13:03:39.288Z,3.20
2023-02-13T13:04:39.282Z,2.90
2023-02-13T13:05:39.239Z,3.20
2023-02-13T13:06:39.248Z,2.90
2023-02-13T13:07:39.223Z,3.20
2023-02-13T13:08:39.420Z,3.60
2023-02-13T13:09:39.372Z,3.10
2023-02-13T13:10:39.192Z,2.90
2023-02-13T13:11:39.181Z,3.10
2023-02-13T13:12:39.169Z,3.20
2023-02-13T13:13:39.145Z,3.30
2023-02-13T13:14:39.146Z,3.10
2023-02-13T13:15:39.325Z,3.40
2023-02-13T13:16:39.189Z,3.80
2023-02-13T13:17:39.118Z,3.00